EmailTwitter


Surface observations / Quebec / CYUL (71627)

Regions: Quebec | Canada | USA | Europe | France | UK | Elsewhere
Station
Display
Info & Location for CYUL (71627) | Help decoding METAR

Weather Conditions observed on 2019/12/12 at 23:00 UTC at MONTREAL INTL A, QB (CYUL)

Sky conditions: overcast.

Temperature: -5.0 Celsius.

Dewpoint: -12.0 Celsius.

Relative Humidity: 58%

Windchill Factor: -12.

Winds: Southeast at 20 km/h or 11 knots.

Mean Sea level Pressure: 103.66 kilopascals.

Altimeter Setting (QNH): 103.62 kilopascals or 30.60 inches of mercury.

Horizontal visibility: 15.00 statute miles or 24.00 kilometers.

Height of the Ceiling: 2743 metres ( 9000 feet ).

Coded METAR:

CYUL 122300Z 15011KT 15SM SCT045 OVC090 M05/M12 A3060 RMK SC3AS5 SLP366=